Time;durP1;ratioP1;P1;durP2;ratioP2;P2;SDS_P1;SDS_P2;PMS_P1;PMS_P2;Temp;Humidity;BMP_temperature;BMP_pressure;BME280_temperature;BME280_humidity;BME280_pressure;Samples;Min_cycle;Max_cycle;Signal;HPM_P1;HPM_P2
2022/08/10 00:01:27;;;;;;;0.20;0.20;;;;;;;;;;5056346;28;20021;-71
2022/08/10 00:03:53;;;;;;;0.20;0.20;;;;;;;;;;5038321;28;20033;-73
2022/08/10 00:06:18;;;;;;;0.20;0.20;;;;;;;;;;5049132;28;20048;-71
2022/08/10 00:08:44;;;;;;;0.20;0.20;;;;;;;;;;5050365;28;20102;-70
2022/08/10 00:11:09;;;;;;;0.20;0.20;;;;;;;;;;5054725;28;20029;-71
2022/08/10 00:13:35;;;;;;;0.20;0.20;;;;;;;;;;5038293;28;20037;-71
2022/08/10 00:16:00;;;;;;;0.20;0.20;;;;;;;;;;5055963;28;20021;-70
2022/08/10 00:18:26;;;;;;;0.38;0.35;;;;;;;;;;5054841;28;20472;-74
2022/08/10 00:20:52;;;;;;;0.20;0.20;;;;;;;;;;5056248;28;20428;-73
2022/08/10 00:23:18;;;;;;;0.20;0.20;;;;;;;;;;5038684;28;20357;-75
2022/08/10 00:25:44;;;;;;;0.38;0.35;;;;;;;;;;5056191;28;20035;-72
2022/08/10 00:28:10;;;;;;;0.22;0.22;;;;;;;;;;5038216;28;20037;-72
2022/08/10 00:30:36;;;;;;;0.30;0.30;;;;;;;;;;5055039;28;20387;-73
2022/08/10 00:33:02;;;;;;;0.20;0.20;;;;;;;;;;5038585;28;20070;-73
2022/08/10 00:35:28;;;;;;;0.20;0.20;;;;;;;;;;5053805;28;20042;-75
2022/08/10 00:37:54;;;;;;;0.20;0.20;;;;;;;;;;5054130;28;20056;-73
2022/08/10 00:40:19;;;;;;;0.25;0.25;;;;;;;;;;5055517;28;20027;-73
2022/08/10 00:42:46;;;;;;;0.20;0.20;;;;;;;;;;5055476;28;20060;-73
2022/08/10 00:45:12;;;;;;;0.20;0.20;;;;;;;;;;5054343;28;20471;-73
2022/08/10 00:47:37;;;;;;;0.20;0.20;;;;;;;;;;5055416;28;20031;-73
2022/08/10 00:50:05;;;;;;;0.20;0.20;;;;;;;;;;5055480;28;20028;-74
2022/08/10 00:52:33;;;;;;;0.20;0.20;;;;;;;;;;5053989;28;20033;-74
2022/08/10 00:54:59;;;;;;;0.20;0.20;;;;;;;;;;5055185;28;20028;-73
2022/08/10 00:57:26;;;;;;;0.20;0.20;;;;;;;;;;5037288;28;20029;-72
2022/08/10 00:59:52;;;;;;;0.20;0.20;;;;;;;;;;5051890;28;20022;-73
2022/08/10 01:02:18;;;;;;;0.20;0.20;;;;;;;;;;5053207;28;20033;-72
2022/08/10 01:04:43;;;;;;;0.95;0.47;;;;;;;;;;5046915;28;20094;-71
2022/08/10 01:07:21;;;;;;;0.20;0.20;;;;;;;;;;5055165;28;20074;-72
2022/08/10 01:09:50;;;;;;;0.20;0.20;;;;;;;;;;5055177;28;20115;-72
2022/08/10 01:12:16;;;;;;;;;;;;;;;;;;5037738;28;20025;-71
2022/08/10 01:14:47;;;;;;;0.20;0.20;;;;;;;;;;5055067;28;20379;-72
2022/08/10 01:17:28;;;;;;;0.30;0.30;;;;;;;;;;5055044;28;20032;-72
2022/08/10 01:19:57;;;;;;;0.30;0.30;;;;;;;;;;5037068;28;20053;-72
2022/08/10 01:22:27;;;;;;;0.20;0.20;;;;;;;;;;5052779;28;20028;-73
2022/08/10 01:25:02;;;;;;;0.20;0.20;;;;;;;;;;5053527;28;20562;-73
2022/08/10 01:27:47;;;;;;;0.20;0.20;;;;;;;;;;5052500;28;20039;-73
2022/08/10 01:30:13;;;;;;;0.30;0.30;;;;;;;;;;5054590;28;20036;-73
2022/08/10 01:32:51;;;;;;;0.20;0.20;;;;;;;;;;5053118;28;20551;-71
2022/08/10 01:35:46;;;;;;;0.20;0.20;;;;;;;;;;5054528;28;20025;-71
2022/08/10 01:38:19;;;;;;;0.20;0.20;;;;;;;;;;5041267;28;20073;-69
2022/08/10 01:40:50;;;;;;;0.20;0.20;;;;;;;;;;5053327;28;20029;-73
2022/08/10 01:43:18;;;;;;;0.20;0.20;;;;;;;;;;5052492;28;20052;-71
2022/08/10 01:45:44;;;;;;;0.30;0.20;;;;;;;;;;5036197;28;20041;-72
2022/08/10 01:48:27;;;;;;;0.22;0.22;;;;;;;;;;5054282;28;20389;-72
2022/08/10 01:50:55;;;;;;;0.20;0.20;;;;;;;;;;5054315;28;20033;-73
2022/08/10 01:53:22;;;;;;;0.20;0.20;;;;;;;;;;5054179;28;20104;-70
2022/08/10 01:55:49;;;;;;;0.20;0.20;;;;;;;;;;5036441;28;20061;-70
2022/08/10 01:58:16;;;;;;;0.30;0.30;;;;;;;;;;5036713;28;20477;-70
2022/08/10 02:00:44;;;;;;;0.20;0.20;;;;;;;;;;5035647;28;20039;-72
2022/08/10 02:03:11;;;;;;;0.32;0.32;;;;;;;;;;5036129;28;20036;-71
2022/08/10 02:05:38;;;;;;;0.20;0.20;;;;;;;;;;5052240;28;20025;-70
2022/08/10 02:08:04;;;;;;;0.85;0.77;;;;;;;;;;5053981;28;20409;-72
2022/08/10 02:10:32;;;;;;;0.30;0.30;;;;;;;;;;5052460;28;20092;-70
2022/08/10 02:12:58;;;;;;;0.30;0.30;;;;;;;;;;5054020;28;20065;-71
2022/08/10 02:15:26;;;;;;;0.30;0.30;;;;;;;;;;5052587;28;20029;-71
2022/08/10 02:17:53;;;;;;;0.20;0.20;;;;;;;;;;5052238;28;20056;-70
2022/08/10 02:20:21;;;;;;;0.65;0.65;;;;;;;;;;5052635;28;20035;-70
2022/08/10 02:22:50;;;;;;;0.20;0.20;;;;;;;;;;5057201;28;20089;-72
2022/08/10 02:25:16;;;;;;;;;;;;;;;;;;5057429;28;20040;-69
2022/08/10 02:27:42;;;;;;;0.30;0.30;;;;;;;;;;5073117;28;20368;-71
2022/08/10 02:30:08;;;;;;;0.20;0.20;;;;;;;;;;5056590;28;20082;-70
2022/08/10 02:32:34;;;;;;;0.20;0.20;;;;;;;;;;5054582;28;20036;-70
2022/08/10 02:35:00;;;;;;;0.20;0.20;;;;;;;;;;5036168;28;20126;-71
2022/08/10 02:37:26;;;;;;;1.35;1.27;;;;;;;;;;5054246;28;20049;-72
2022/08/10 02:39:52;;;;;;;0.10;0.10;;;;;;;;;;5036127;28;20028;-71
2022/08/10 02:42:27;;;;;;;0.20;0.20;;;;;;;;;;5052884;28;20040;-71
2022/08/10 02:45:01;;;;;;;0.20;0.20;;;;;;;;;;5053380;28;20035;-72
2022/08/10 02:47:30;;;;;;;2.40;0.93;;;;;;;;;;5053437;28;20037;-73
2022/08/10 02:50:07;;;;;;;0.20;0.20;;;;;;;;;;5053313;28;20025;-72
2022/08/10 02:52:47;;;;;;;0.20;0.20;;;;;;;;;;5035488;28;20033;-73
2022/08/10 02:55:33;;;;;;;0.20;0.20;;;;;;;;;;5052124;28;20025;-73
2022/08/10 02:58:01;;;;;;;0.20;0.20;;;;;;;;;;5037930;28;20365;-72
2022/08/10 03:00:27;;;;;;;0.20;0.20;;;;;;;;;;5051633;28;20032;-72
2022/08/10 03:02:55;;;;;;;0.20;0.20;;;;;;;;;;5048654;28;20391;-72
2022/08/10 03:05:21;;;;;;;0.55;0.55;;;;;;;;;;5048658;28;20049;-71
2022/08/10 03:07:50;;;;;;;0.17;0.17;;;;;;;;;;5049991;28;20066;-72
2022/08/10 03:10:22;;;;;;;0.20;0.20;;;;;;;;;;5050158;28;20053;-72
2022/08/10 03:12:49;;;;;;;0.20;0.20;;;;;;;;;;5031606;28;20033;-71
2022/08/10 03:15:15;;;;;;;0.20;0.20;;;;;;;;;;5050067;28;20463;-71
2022/08/10 03:17:43;;;;;;;0.20;0.20;;;;;;;;;;5032466;28;20111;-71
2022/08/10 03:20:09;;;;;;;0.40;0.40;;;;;;;;;;5032090;28;20075;-71
2022/08/10 03:22:35;;;;;;;0.10;0.10;;;;;;;;;;5031842;28;20071;-73
2022/08/10 03:25:01;;;;;;;0.20;0.20;;;;;;;;;;5049047;28;20064;-72
2022/08/10 03:27:27;;;;;;;0.20;0.20;;;;;;;;;;5049542;28;20025;-73
2022/08/10 03:29:54;;;;;;;0.15;0.15;;;;;;;;;;5048395;28;20033;-71
2022/08/10 03:32:22;;;;;;;0.65;0.63;;;;;;;;;;5048035;28;20033;-72
2022/08/10 03:34:48;;;;;;;0.20;0.20;;;;;;;;;;5049395;28;20032;-72
2022/08/10 03:37:14;;;;;;;0.20;0.20;;;;;;;;;;5031269;28;20094;-73
2022/08/10 03:39:40;;;;;;;0.30;0.30;;;;;;;;;;5047977;28;20107;-71
2022/08/10 03:42:07;;;;;;;0.20;0.20;;;;;;;;;;5049080;28;20040;-73
2022/08/10 03:44:34;;;;;;;0.30;0.30;;;;;;;;;;5048553;28;20067;-72
2022/08/10 03:47:01;;;;;;;0.30;0.30;;;;;;;;;;5030992;28;20523;-73
2022/08/10 03:49:28;;;;;;;0.25;0.25;;;;;;;;;;5048847;28;20021;-73
2022/08/10 03:51:54;;;;;;;0.20;0.20;;;;;;;;;;5031175;28;20484;-79
2022/08/10 03:54:20;;;;;;;0.20;0.20;;;;;;;;;;5048514;28;20017;-78
2022/08/10 03:56:46;;;;;;;0.68;0.68;;;;;;;;;;5047414;28;20037;-79
2022/08/10 03:59:13;;;;;;;0.22;0.22;;;;;;;;;;5048788;28;20025;-72
2022/08/10 04:01:43;;;;;;;0.17;0.17;;;;;;;;;;5030645;28;20489;-71
2022/08/10 04:04:09;;;;;;;0.55;0.55;;;;;;;;;;5031252;28;20040;-70
2022/08/10 04:06:35;;;;;;;0.20;0.20;;;;;;;;;;5030732;28;20066;-72
2022/08/10 04:09:01;;;;;;;0.20;0.20;;;;;;;;;;5049035;28;20031;-72
2022/08/10 04:11:26;;;;;;;0.20;0.20;;;;;;;;;;5052300;28;20060;-74
2022/08/10 04:13:52;;;;;;;0.40;0.40;;;;;;;;;;5050686;28;20036;-72
2022/08/10 04:16:18;;;;;;;0.25;0.25;;;;;;;;;;5052211;28;20033;-73
2022/08/10 04:18:44;;;;;;;0.20;0.20;;;;;;;;;;5051152;28;20464;-73
2022/08/10 04:21:30;;;;;;;0.20;0.20;;;;;;;;;;5052196;28;20043;-72
2022/08/10 04:23:57;;;;;;;0.43;0.43;;;;;;;;;;5052119;28;20025;-70
2022/08/10 04:26:23;;;;;;;0.75;0.75;;;;;;;;;;5033489;28;20029;-70
2022/08/10 04:28:49;;;;;;;0.20;0.20;;;;;;;;;;5050433;28;20029;-72
2022/08/10 04:31:15;;;;;;;0.55;0.52;;;;;;;;;;5051865;28;20431;-72
2022/08/10 04:33:44;;;;;;;30.67;10.88;;;;;;;;;;5050252;28;20028;-71
2022/08/10 04:36:11;;;;;;;0.13;0.13;;;;;;;;;;5050525;28;20036;-72
2022/08/10 04:38:37;;;;;;;0.28;0.28;;;;;;;;;;5050416;28;20076;-73
2022/08/10 04:41:03;;;;;;;0.20;0.20;;;;;;;;;;5031275;28;20022;-73
2022/08/10 04:43:29;;;;;;;0.35;0.35;;;;;;;;;;5049249;28;20036;-72
2022/08/10 04:45:54;;;;;;;0.20;0.20;;;;;;;;;;5050471;28;20056;-75
2022/08/10 04:48:21;;;;;;;0.73;0.47;;;;;;;;;;5051406;28;20396;-72
2022/08/10 04:50:47;;;;;;;0.55;0.50;;;;;;;;;;5051729;28;20612;-72
2022/08/10 04:53:12;;;;;;;0.82;0.70;;;;;;;;;;5051123;28;20021;-72
2022/08/10 04:55:38;;;;;;;0.70;0.40;;;;;;;;;;5050989;28;20067;-72
2022/08/10 04:58:04;;;;;;;0.75;0.75;;;;;;;;;;5050419;28;20188;-72
2022/08/10 05:00:30;;;;;;;8.18;1.63;;;;;;;;;;5051354;28;20021;-73
2022/08/10 05:02:55;;;;;;;0.20;0.20;;;;;;;;;;5051492;28;20028;-78
2022/08/10 05:05:21;;;;;;;0.20;0.20;;;;;;;;;;5052067;28;20086;-74
2022/08/10 05:07:47;;;;;;;0.20;0.20;;;;;;;;;;5051037;28;20043;-73
2022/08/10 05:10:12;;;;;;;0.20;0.20;;;;;;;;;;5051037;28;20104;-79
2022/08/10 05:12:39;;;;;;;0.20;0.20;;;;;;;;;;5033584;28;20162;-73
2022/08/10 05:15:06;;;;;;;0.30;0.30;;;;;;;;;;5047336;28;20444;-74
2022/08/10 05:17:32;;;;;;;0.20;0.20;;;;;;;;;;5047080;28;20025;-72
2022/08/10 05:19:57;;;;;;;0.30;0.30;;;;;;;;;;5032258;28;20037;-74
2022/08/10 05:22:23;;;;;;;0.20;0.20;;;;;;;;;;5053852;28;20029;-72
2022/08/10 05:24:49;;;;;;;0.20;0.20;;;;;;;;;;5048608;28;20052;-72
2022/08/10 05:27:14;;;;;;;0.10;0.10;;;;;;;;;;5051232;28;20551;-72
2022/08/10 05:29:40;;;;;;;0.20;0.20;;;;;;;;;;5053108;28;20032;-75
2022/08/10 05:32:05;;;;;;;0.20;0.20;;;;;;;;;;5049689;28;20032;-72
2022/08/10 05:34:31;;;;;;;0.20;0.20;;;;;;;;;;5036959;28;20504;-73
2022/08/10 05:36:57;;;;;;;0.45;0.45;;;;;;;;;;5044349;28;20102;-73
2022/08/10 05:39:22;;;;;;;0.20;0.20;;;;;;;;;;5044328;28;20032;-73
2022/08/10 05:41:52;;;;;;;0.20;0.20;;;;;;;;;;5048473;28;20028;-72
2022/08/10 05:44:19;;;;;;;0.30;0.30;;;;;;;;;;5046461;28;20032;-72
2022/08/10 05:46:45;;;;;;;0.20;0.20;;;;;;;;;;5047186;28;20021;-73
2022/08/10 05:49:10;;;;;;;1.08;1.08;;;;;;;;;;5046568;28;20036;-74
2022/08/10 05:51:37;;;;;;;0.20;0.20;;;;;;;;;;5050019;28;20033;-73
2022/08/10 05:54:13;;;;;;;0.20;0.20;;;;;;;;;;5047682;28;20560;-73
2022/08/10 05:56:40;;;;;;;0.20;0.20;;;;;;;;;;5031941;28;20037;-74
2022/08/10 05:59:05;;;;;;;0.20;0.20;;;;;;;;;;5048585;28;20384;-74
2022/08/10 06:01:32;;;;;;;0.15;0.15;;;;;;;;;;5049640;28;20029;-74
2022/08/10 06:04:00;;;;;;;0.20;0.20;;;;;;;;;;5050178;28;20091;-75
2022/08/10 06:06:27;;;;;;;0.20;0.20;;;;;;;;;;5051421;28;20036;-75
2022/08/10 06:08:54;;;;;;;0.20;0.20;;;;;;;;;;5032125;28;20104;-75
2022/08/10 06:11:21;;;;;;;0.20;0.20;;;;;;;;;;5049575;28;20059;-75
2022/08/10 06:16:31;;;;;;;0.20;0.20;;;;;;;;;;5049711;28;20037;-74
2022/08/10 06:18:58;;;;;;;1.10;1.10;;;;;;;;;;5033940;28;20581;-74
2022/08/10 06:21:23;;;;;;;0.20;0.20;;;;;;;;;;5030915;28;20026;-74
2022/08/10 06:23:50;;;;;;;0.20;0.20;;;;;;;;;;5049404;28;20492;-75
2022/08/10 06:26:16;;;;;;;0.20;0.20;;;;;;;;;;5049745;28;20468;-75
2022/08/10 06:28:51;;;;;;;0.30;0.30;;;;;;;;;;5049721;28;20056;-74
2022/08/10 06:31:18;;;;;;;0.25;0.25;;;;;;;;;;5032925;28;20028;-75
2022/08/10 06:33:44;;;;;;;0.22;0.22;;;;;;;;;;5035317;28;20033;-76
2022/08/10 06:36:10;;;;;;;0.20;0.20;;;;;;;;;;5053627;28;20020;-76
2022/08/10 06:38:37;;;;;;;0.40;0.40;;;;;;;;;;5064935;28;20044;-75
2022/08/10 06:41:06;;;;;;;0.28;0.28;;;;;;;;;;5070029;28;20028;-74
2022/08/10 06:43:31;;;;;;;;;;;;;;;;;;5053388;28;20043;-74
2022/08/10 06:46:02;;;;;;;0.28;0.28;;;;;;;;;;5051297;28;19917;-72
2022/08/10 06:48:31;;;;;;;0.30;0.30;;;;;;;;;;5065853;28;20041;-73
2022/08/10 06:50:59;;;;;;;0.28;0.28;;;;;;;;;;5047817;28;20080;-75
2022/08/10 06:53:30;;;;;;;0.40;0.40;;;;;;;;;;5048767;28;20032;-76
2022/08/10 06:55:58;;;;;;;0.30;0.30;;;;;;;;;;5050135;28;20123;-75
2022/08/10 06:58:28;;;;;;;0.30;0.30;;;;;;;;;;5044645;28;20037;-77
2022/08/10 07:00:54;;;;;;;0.30;0.30;;;;;;;;;;5052507;28;20530;-75
2022/08/10 07:03:21;;;;;;;0.30;0.30;;;;;;;;;;5054381;28;20025;-74
2022/08/10 07:05:48;;;;;;;0.30;0.30;;;;;;;;;;5042431;28;20048;-73
2022/08/10 07:08:16;;;;;;;0.30;0.30;;;;;;;;;;5048336;28;20100;-74
2022/08/10 07:10:42;;;;;;;0.73;0.73;;;;;;;;;;5048910;28;20053;-74
2022/08/10 07:13:08;;;;;;;0.30;0.30;;;;;;;;;;5047356;28;20029;-74
2022/08/10 07:15:35;;;;;;;0.40;0.40;;;;;;;;;;5048492;28;20033;-75
2022/08/10 07:18:02;;;;;;;1.17;1.08;;;;;;;;;;5036157;28;20546;-74
2022/08/10 07:20:28;;;;;;;0.50;0.50;;;;;;;;;;5049065;28;20083;-74
2022/08/10 07:22:54;;;;;;;0.25;0.25;;;;;;;;;;5058995;28;20013;-73
2022/08/10 07:25:23;;;;;;;0.40;0.40;;;;;;;;;;5030766;28;20029;-75
2022/08/10 07:27:49;;;;;;;;;;;;;;;;;;5029047;28;20108;-75
2022/08/10 07:30:15;;;;;;;0.30;0.30;;;;;;;;;;5039816;28;20095;-73
2022/08/10 07:32:43;;;;;;;0.40;0.40;;;;;;;;;;5047878;28;20111;-74
2022/08/10 07:35:12;;;;;;;0.30;0.30;;;;;;;;;;5037626;28;20060;-74
2022/08/10 07:37:37;;;;;;;0.30;0.30;;;;;;;;;;5040529;28;20048;-73
2022/08/10 07:40:03;;;;;;;0.30;0.30;;;;;;;;;;5050901;28;20024;-74
2022/08/10 07:42:30;;;;;;;0.30;0.30;;;;;;;;;;5068472;28;20083;-74
2022/08/10 07:44:56;;;;;;;0.40;0.40;;;;;;;;;;5069319;28;20039;-74
2022/08/10 07:47:23;;;;;;;0.38;0.38;;;;;;;;;;5072879;28;20033;-73
2022/08/10 07:49:51;;;;;;;0.52;0.52;;;;;;;;;;5061438;28;20918;-75
2022/08/10 07:52:18;;;;;;;0.40;0.40;;;;;;;;;;5052435;28;20060;-77
2022/08/10 07:54:47;;;;;;;0.30;0.30;;;;;;;;;;5048833;28;20028;-74
2022/08/10 07:57:16;;;;;;;0.45;0.45;;;;;;;;;;5049979;28;20036;-75
2022/08/10 07:59:41;;;;;;;;;;;;;;;;;;5050420;28;20033;-74
2022/08/10 08:02:12;;;;;;;0.40;0.40;;;;;;;;;;5050349;28;20399;-74
2022/08/10 08:04:38;;;;;;;0.40;0.40;;;;;;;;;;5049368;28;20048;-75
2022/08/10 08:07:07;;;;;;;0.50;0.50;;;;;;;;;;5053038;28;20082;-78
2022/08/10 08:09:32;;;;;;;;;;;;;;;;;;5053572;28;20017;-74
2022/08/10 08:11:58;;;;;;;0.37;0.37;;;;;;;;;;5050156;28;20390;-74
2022/08/10 08:14:25;;;;;;;0.40;0.40;;;;;;;;;;5051978;28;20266;-75
2022/08/10 08:16:51;;;;;;;0.40;0.40;;;;;;;;;;5032470;28;20033;-74
2022/08/10 08:19:18;;;;;;;0.32;0.32;;;;;;;;;;5050035;28;20484;-73
2022/08/10 08:21:44;;;;;;;0.40;0.40;;;;;;;;;;5034391;28;20041;-75
2022/08/10 08:24:12;;;;;;;0.73;0.63;;;;;;;;;;5050773;28;20115;-77
2022/08/10 08:26:39;;;;;;;1.13;1.03;;;;;;;;;;5032282;28;20053;-74
2022/08/10 08:29:07;;;;;;;0.60;0.60;;;;;;;;;;5032224;28;20303;-74
2022/08/10 08:31:34;;;;;;;0.50;0.50;;;;;;;;;;5047512;28;20025;-78
2022/08/10 08:34:00;;;;;;;0.47;0.47;;;;;;;;;;5032752;28;20029;-76
2022/08/10 08:36:25;;;;;;;0.50;0.50;;;;;;;;;;5051638;28;20021;-77
2022/08/10 08:38:51;;;;;;;0.40;0.40;;;;;;;;;;5051861;28;20102;-79
2022/08/10 08:41:35;;;;;;;0.80;0.77;;;;;;;;;;5051401;28;20067;-74
2022/08/10 08:44:16;;;;;;;0.50;0.50;;;;;;;;;;5052152;28;20500;-74
2022/08/10 08:46:45;;;;;;;0.60;0.60;;;;;;;;;;5050234;28;20160;-75
2022/08/10 08:49:10;;;;;;;;;;;;;;;;;;5051837;28;20028;-75
2022/08/10 08:51:39;;;;;;;0.80;0.80;;;;;;;;;;5051693;28;20284;-74
2022/08/10 08:54:13;;;;;;;0.40;0.40;;;;;;;;;;5051562;28;20098;-73
2022/08/10 08:56:45;;;;;;;0.40;0.40;;;;;;;;;;5050261;28;20041;-74
2022/08/10 08:59:17;;;;;;;1.45;1.42;;;;;;;;;;5033553;28;20089;-72
2022/08/10 09:01:48;;;;;;;1.45;1.35;;;;;;;;;;5051775;28;20384;-74
2022/08/10 09:04:26;;;;;;;1.05;0.70;;;;;;;;;;5051081;28;20039;-72
2022/08/10 09:07:09;;;;;;;1.00;0.93;;;;;;;;;;5051652;28;20041;-78
2022/08/10 09:09:58;;;;;;;5.35;1.88;;;;;;;;;;5051213;28;20486;-75
2022/08/10 09:12:23;;;;;;;1.48;1.20;;;;;;;;;;5033707;28;20021;-74
2022/08/10 09:14:59;;;;;;;1.92;1.48;;;;;;;;;;5051343;28;20044;-73
2022/08/10 09:17:31;;;;;;;0.65;0.65;;;;;;;;;;5050104;28;20032;-75
2022/08/10 09:20:15;;;;;;;1.25;1.00;;;;;;;;;;5051515;28;20506;-74
2022/08/10 09:22:58;;;;;;;0.70;0.70;;;;;;;;;;5050692;28;20028;-74
2022/08/10 09:25:34;;;;;;;0.50;0.50;;;;;;;;;;5050835;28;20116;-74
2022/08/10 09:28:03;;;;;;;0.50;0.50;;;;;;;;;;5049774;28;20055;-74
2022/08/10 09:30:38;;;;;;;0.57;0.57;;;;;;;;;;5051077;28;20037;-74
2022/08/10 09:33:06;;;;;;;3.58;2.67;;;;;;;;;;5050736;28;20533;-75
2022/08/10 09:35:32;;;;;;;;;;;;;;;;;;5051218;28;20036;-73
2022/08/10 09:38:16;;;;;;;2.42;1.80;;;;;;;;;;5050222;28;19924;-74
2022/08/10 09:40:45;;;;;;;1.73;1.38;;;;;;;;;;5050988;28;20434;-74
2022/08/10 09:43:46;;;;;;;0.40;0.40;;;;;;;;;;5050857;28;20029;-74
2022/08/10 09:46:12;;;;;;;0.60;0.60;;;;;;;;;;4969516;28;20031;-75
2022/08/10 09:48:50;;;;;;;2.17;1.98;;;;;;;;;;5034005;28;20045;-74
2022/08/10 09:51:25;;;;;;;0.50;0.50;;;;;;;;;;5049501;28;20679;-74
2022/08/10 09:53:51;;;;;;;1.98;1.77;;;;;;;;;;5049208;28;20036;-74
2022/08/10 09:56:28;;;;;;;0.45;0.45;;;;;;;;;;5050655;28;20025;-78
2022/08/10 09:59:12;;;;;;;0.68;0.68;;;;;;;;;;5049029;28;20036;-73
2022/08/10 10:01:50;;;;;;;0.60;0.60;;;;;;;;;;5050386;28;20028;-74
2022/08/10 10:04:28;;;;;;;1.50;1.37;;;;;;;;;;5049142;28;20082;-74
2022/08/10 10:06:55;;;;;;;1.08;1.05;;;;;;;;;;5049870;28;20044;-77
2022/08/10 10:09:25;;;;;;;2.38;1.75;;;;;;;;;;5032401;28;20033;-73
2022/08/10 10:11:51;;;;;;;2.47;2.22;;;;;;;;;;5050126;28;20068;-78
2022/08/10 10:14:16;;;;;;;1.73;1.50;;;;;;;;;;5050261;28;20050;-74
2022/08/10 10:16:44;;;;;;;1.42;1.33;;;;;;;;;;5050183;28;20078;-73
2022/08/10 10:19:16;;;;;;;2.30;1.92;;;;;;;;;;5049973;28;20025;-75
2022/08/10 10:22:08;;;;;;;2.22;1.40;;;;;;;;;;5049962;28;20029;-74
2022/08/10 10:24:40;;;;;;;2.30;2.10;;;;;;;;;;5019005;28;20460;-73
2022/08/10 10:27:12;;;;;;;1.05;0.85;;;;;;;;;;5049999;28;20029;-74
2022/08/10 10:29:46;;;;;;;1.08;1.00;;;;;;;;;;5048981;28;20037;-74
2022/08/10 10:32:21;;;;;;;0.68;0.68;;;;;;;;;;5031761;28;20029;-73
2022/08/10 10:34:49;;;;;;;0.50;0.50;;;;;;;;;;5049981;28;20040;-73
2022/08/10 10:37:15;;;;;;;1.05;0.95;;;;;;;;;;5048205;28;20049;-74
2022/08/10 10:39:47;;;;;;;0.93;0.80;;;;;;;;;;5048172;28;20029;-75
2022/08/10 10:42:15;;;;;;;1.63;1.00;;;;;;;;;;5031980;28;20025;-74
2022/08/10 10:44:59;;;;;;;2.30;1.92;;;;;;;;;;5048500;28;20032;-74
2022/08/10 10:47:45;;;;;;;2.13;1.85;;;;;;;;;;5049595;28;20033;-72
2022/08/10 10:50:11;;;;;;;0.85;0.85;;;;;;;;;;5049748;28;20072;-74
2022/08/10 10:52:38;;;;;;;0.45;0.45;;;;;;;;;;5032046;28;20021;-74
2022/08/10 10:55:09;;;;;;;1.33;1.13;;;;;;;;;;5061258;28;20033;-73
2022/08/10 10:57:39;;;;;;;1.58;1.10;;;;;;;;;;5066756;28;20032;-74
2022/08/10 11:00:09;;;;;;;5.13;2.65;;;;;;;;;;5061154;28;20112;-74
2022/08/10 11:02:54;;;;;;;0.75;0.75;;;;;;;;;;5033044;28;20036;-74
2022/08/10 11:05:31;;;;;;;0.57;0.57;;;;;;;;;;5050297;28;20479;-74
2022/08/10 11:08:00;;;;;;;2.25;1.50;;;;;;;;;;5048521;28;20032;-73
2022/08/10 11:10:45;;;;;;;0.63;0.63;;;;;;;;;;5031856;28;20115;-75
2022/08/10 11:13:14;;;;;;;2.33;2.05;;;;;;;;;;5031575;28;20477;-76
2022/08/10 11:15:42;;;;;;;2.13;1.83;;;;;;;;;;5048288;28;20086;-77
2022/08/10 11:18:14;;;;;;;0.95;0.88;;;;;;;;;;5049544;28;20025;-74
2022/08/10 11:20:45;;;;;;;7.32;1.52;;;;;;;;;;5052812;28;20040;-75
2022/08/10 11:23:20;;;;;;;2.17;1.70;;;;;;;;;;5051947;28;20025;-74
2022/08/10 11:25:58;;;;;;;2.08;1.40;;;;;;;;;;5053784;28;20472;-75
2022/08/10 11:28:35;;;;;;;4.68;1.00;;;;;;;;;;5052587;28;20102;-78
2022/08/10 11:31:11;;;;;;;2.20;1.75;;;;;;;;;;5035613;28;20064;-74
2022/08/10 11:33:52;;;;;;;0.75;0.75;;;;;;;;;;5035581;28;20021;-75
2022/08/10 11:36:36;;;;;;;2.45;1.60;;;;;;;;;;5036040;28;20387;-73
2022/08/10 11:39:09;;;;;;;1.00;0.90;;;;;;;;;;5012440;28;20064;-75
2022/08/10 11:41:40;;;;;;;1.52;1.42;;;;;;;;;;5013867;28;20060;-75
2022/08/10 11:44:06;;;;;;;1.35;1.17;;;;;;;;;;5013713;28;20097;-74
2022/08/10 11:46:37;;;;;;;1.10;0.95;;;;;;;;;;5013460;28;20129;-75
2022/08/10 11:49:06;;;;;;;0.85;0.82;;;;;;;;;;5013410;28;20030;-72
2022/08/10 11:51:34;;;;;;;4.00;2.15;;;;;;;;;;5013156;28;20461;-74
2022/08/10 11:54:04;;;;;;;1.92;1.38;;;;;;;;;;5012102;28;20033;-74
2022/08/10 11:56:38;;;;;;;3.40;2.00;;;;;;;;;;5013766;28;20033;-74
2022/08/10 12:01:49;;;;;;;0.73;0.70;;;;;;;;;;5013451;28;20096;-74
2022/08/10 12:04:15;;;;;;;0.65;0.65;;;;;;;;;;5011344;28;20499;-73
2022/08/10 12:06:41;;;;;;;0.65;0.65;;;;;;;;;;4995592;28;20041;-73
2022/08/10 12:09:08;;;;;;;3.13;1.63;;;;;;;;;;5011681;28;20549;-76
2022/08/10 12:11:34;;;;;;;1.60;1.48;;;;;;;;;;5013447;28;20088;-75
2022/08/10 12:14:18;;;;;;;1.27;1.05;;;;;;;;;;5012017;28;20058;-77
2022/08/10 12:16:47;;;;;;;2.38;1.58;;;;;;;;;;5011165;28;20034;-75
2022/08/10 12:19:22;;;;;;;1.70;1.60;;;;;;;;;;5012566;28;20045;-74
2022/08/10 12:22:09;;;;;;;1.30;1.10;;;;;;;;;;4995284;28;20389;-74
2022/08/10 12:24:45;;;;;;;3.28;2.20;;;;;;;;;;4995320;28;20059;-74
2022/08/10 12:27:31;;;;;;;2.30;0.90;;;;;;;;;;5011179;28;20037;-74
2022/08/10 12:30:06;;;;;;;5.50;2.58;;;;;;;;;;4999974;28;20051;-73
2022/08/10 12:32:34;;;;;;;3.90;2.95;;;;;;;;;;4992962;28;20026;-74
2022/08/10 12:35:00;;;;;;;3.20;2.08;;;;;;;;;;4992925;28;20117;-73
2022/08/10 12:37:30;;;;;;;2.72;2.15;;;;;;;;;;5009498;28;20509;-73
2022/08/10 12:40:14;;;;;;;4.28;3.35;;;;;;;;;;5030672;28;20504;-73
2022/08/10 12:42:49;;;;;;;5.45;4.55;;;;;;;;;;5031706;28;20476;-74
2022/08/10 12:45:22;;;;;;;2.33;2.13;;;;;;;;;;5014156;28;20033;-73
2022/08/10 12:48:03;;;;;;;4.43;3.53;;;;;;;;;;5031247;28;20509;-73
2022/08/10 12:50:36;;;;;;;1.42;1.30;;;;;;;;;;5014290;28;20072;-73
2022/08/10 12:53:13;;;;;;;1.40;1.23;;;;;;;;;;5031649;28;20503;-75
2022/08/10 12:55:40;;;;;;;3.30;2.15;;;;;;;;;;5031946;28;20069;-73
2022/08/10 12:58:06;;;;;;;1.80;1.40;;;;;;;;;;5030297;28;20477;-74
2022/08/10 13:00:33;;;;;;;4.35;2.53;;;;;;;;;;5013968;28;20041;-74
2022/08/10 13:03:00;;;;;;;1.75;1.35;;;;;;;;;;5030550;28;20037;-74
2022/08/10 13:05:26;;;;;;;1.85;1.55;;;;;;;;;;5030322;28;20041;-73
2022/08/10 13:09:07;;;;;;;2.83;2.25;;;;;;;;;;5014003;28;20065;-73
2022/08/10 13:10:43;;;;;;;1.02;0.93;;;;;;;;;;5031499;28;20030;-75
2022/08/10 13:13:13;;;;;;;5.80;2.00;;;;;;;;;;5029902;28;20029;-73
2022/08/10 13:15:43;;;;;;;2.33;1.85;;;;;;;;;;5030276;28;20043;-73
2022/08/10 13:18:09;;;;;;;1.25;1.15;;;;;;;;;;5030060;28;20033;-77
2022/08/10 13:20:39;;;;;;;2.38;1.75;;;;;;;;;;5031361;28;20120;-74
2022/08/10 13:23:11;;;;;;;1.83;1.42;;;;;;;;;;5013672;28;20037;-74
2022/08/10 13:25:39;;;;;;;2.63;1.92;;;;;;;;;;5013371;28;20091;-74
2022/08/10 13:28:05;;;;;;;1.67;1.40;;;;;;;;;;5013498;28;20030;-74
2022/08/10 13:30:31;;;;;;;2.90;1.95;;;;;;;;;;5013366;28;20095;-74
2022/08/10 13:32:57;;;;;;;0.50;0.50;;;;;;;;;;5029740;28;20033;-75
2022/08/10 13:35:24;;;;;;;2.97;2.00;;;;;;;;;;5013216;28;20888;-74
2022/08/10 13:37:54;;;;;;;2.30;1.95;;;;;;;;;;5035288;28;20076;-76
2022/08/10 13:40:21;;;;;;;1.35;1.25;;;;;;;;;;5040201;28;20026;-73
2022/08/10 13:42:48;;;;;;;2.42;1.52;;;;;;;;;;5041237;28;20044;-75
2022/08/10 13:45:19;;;;;;;1.35;1.13;;;;;;;;;;5040388;28;20033;-74
2022/08/10 13:47:47;;;;;;;3.58;1.05;;;;;;;;;;5042033;28;20032;-75
2022/08/10 13:50:17;;;;;;;1.40;1.17;;;;;;;;;;5036739;28;20045;-78
2022/08/10 13:52:49;;;;;;;2.17;1.65;;;;;;;;;;5030493;28;20107;-73
2022/08/10 13:55:16;;;;;;;2.58;1.90;;;;;;;;;;5042265;28;20040;-74
2022/08/10 13:57:45;;;;;;;1.05;0.95;;;;;;;;;;5045067;28;20447;-74
2022/08/10 14:00:12;;;;;;;2.28;1.52;;;;;;;;;;5038352;28;20097;-75
2022/08/10 14:02:40;;;;;;;1.98;1.35;;;;;;;;;;5028961;28;20068;-74
2022/08/10 14:05:06;;;;;;;1.20;1.02;;;;;;;;;;5027693;28;20492;-74
2022/08/10 14:07:33;;;;;;;2.63;1.13;;;;;;;;;;5046388;28;20021;-74
2022/08/10 14:10:06;;;;;;;6.32;1.98;;;;;;;;;;5030411;28;20037;-74
2022/08/10 14:12:35;;;;;;;1.65;1.42;;;;;;;;;;5031209;28;20108;-74
2022/08/10 14:15:06;;;;;;;1.17;1.08;;;;;;;;;;5030791;28;20045;-73
2022/08/10 14:17:32;;;;;;;2.63;1.42;;;;;;;;;;5031970;28;20025;-73
2022/08/10 14:19:58;;;;;;;2.00;1.38;;;;;;;;;;5045017;28;20033;-75
2022/08/10 14:22:24;;;;;;;0.77;0.73;;;;;;;;;;5037869;28;20124;-74
2022/08/10 14:24:51;;;;;;;2.97;1.73;;;;;;;;;;5031753;28;20484;-75
2022/08/10 14:27:17;;;;;;;2.05;1.63;;;;;;;;;;5049205;28;20048;-75
2022/08/10 14:29:43;;;;;;;0.70;0.70;;;;;;;;;;5029730;28;20040;-74
2022/08/10 14:32:11;;;;;;;0.98;0.98;;;;;;;;;;5054211;28;20029;-73
2022/08/10 14:34:38;;;;;;;2.08;1.48;;;;;;;;;;5048816;28;20159;-75
2022/08/10 14:37:09;;;;;;;2.55;1.73;;;;;;;;;;5047603;28;20441;-74
2022/08/10 14:39:42;;;;;;;1.38;1.15;;;;;;;;;;5048291;28;20034;-74
2022/08/10 14:42:11;;;;;;;0.82;0.80;;;;;;;;;;5047984;28;20056;-74
2022/08/10 14:44:37;;;;;;;;;;;;;;;;;;5032350;28;20111;-74
2022/08/10 14:47:03;;;;;;;1.50;1.23;;;;;;;;;;5047321;28;19991;-75
2022/08/10 14:49:29;;;;;;;1.80;1.27;;;;;;;;;;5056155;28;20029;-77
2022/08/10 14:51:59;;;;;;;1.40;1.10;;;;;;;;;;5069212;28;20028;-74
2022/08/10 14:54:28;;;;;;;1.42;0.98;;;;;;;;;;5068350;28;20064;-74
2022/08/10 14:56:54;;;;;;;1.90;1.42;;;;;;;;;;5052807;28;20017;-74
2022/08/10 14:59:25;;;;;;;2.25;1.60;;;;;;;;;;5048606;28;20083;-75
2022/08/10 15:01:55;;;;;;;0.70;0.70;;;;;;;;;;5048610;28;20112;-75
2022/08/10 15:04:22;;;;;;;0.75;0.73;;;;;;;;;;5047823;28;20432;-75